Time;durP1;ratioP1;P1;durP2;ratioP2;P2;SDS_P1;SDS_P2;PMS_P1;PMS_P2;Temp;Humidity;BMP_temperature;BMP_pressure;BME280_temperature;BME280_humidity;BME280_pressure;Samples;Min_cycle;Max_cycle;Signal;HPM_P1;HPM_P2
2021/04/27 00:01:51;;;;;;;3.77;1.30;;;3.60;54.30;;;;;;5016327;28;20037;-65
2021/04/27 00:04:17;;;;;;;3.63;1.30;;;3.50;54.60;;;;;;5016356;28;20042;-65
2021/04/27 00:06:43;;;;;;;4.67;1.50;;;3.50;54.80;;;;;;4999688;28;20560;-65
2021/04/27 00:09:09;;;;;;;4.70;1.30;;;3.40;54.80;;;;;;5034152;28;20060;-65
2021/04/27 00:11:35;;;;;;;4.00;1.40;;;3.40;54.90;;;;;;5034045;28;20121;-64
2021/04/27 00:14:02;;;;;;;5.10;1.57;;;3.30;55.10;;;;;;5015282;28;20041;-66
2021/04/27 00:16:28;;;;;;;3.93;1.40;;;3.30;55.20;;;;;;5034128;28;20095;-65
2021/04/27 00:18:53;;;;;;;3.47;1.30;;;3.30;55.40;;;;;;4999766;28;20033;-66
2021/04/27 00:21:19;;;;;;;3.67;1.33;;;3.30;55.70;;;;;;5034004;28;20037;-64
2021/04/27 00:23:45;;;;;;;4.93;1.73;;;3.20;55.80;;;;;;5033606;28;20033;-65
2021/04/27 00:26:11;;;;;;;4.67;1.40;;;3.20;56.00;;;;;;5033552;28;20155;-65
2021/04/27 00:28:37;;;;;;;3.80;1.23;;;3.10;56.30;;;;;;5016001;28;20120;-65
2021/04/27 00:31:03;;;;;;;5.07;1.50;;;3.00;56.60;;;;;;5016295;28;20036;-64
2021/04/27 00:33:28;;;;;;;4.80;1.50;;;3.00;56.90;;;;;;5033163;28;20029;-64
2021/04/27 00:35:54;;;;;;;4.40;1.60;;;2.90;57.10;;;;;;5033890;28;20497;-65
2021/04/27 00:38:20;;;;;;;4.77;1.40;;;2.90;57.20;;;;;;5015652;28;20112;-65
2021/04/27 00:40:45;;;;;;;4.93;1.40;;;2.90;57.40;;;;;;4999783;28;20037;-65
2021/04/27 00:43:11;;;;;;;3.43;1.33;;;2.90;57.60;;;;;;5033178;28;20034;-65
2021/04/27 00:45:37;;;;;;;3.77;1.40;;;2.80;57.70;;;;;;5033271;28;20037;-65
2021/04/27 00:48:03;;;;;;;11.20;1.80;;;2.80;57.90;;;;;;5033511;28;20046;-64
2021/04/27 00:50:36;;;;;;;3.63;1.30;;;2.70;58.10;;;;;;4999531;28;20083;-65
2021/04/27 00:53:04;;;;;;;4.47;1.27;;;2.60;58.30;;;;;;5032625;28;20037;-64
2021/04/27 00:55:30;;;;;;;5.50;1.60;;;2.60;58.50;;;;;;5014819;28;20029;-66
2021/04/27 00:57:59;;;;;;;4.63;1.40;;;2.50;58.80;;;;;;5032804;28;20045;-65
2021/04/27 01:00:27;;;;;;;3.47;1.30;;;2.50;59.10;;;;;;5015511;28;20037;-64
2021/04/27 01:02:53;;;;;;;5.43;1.47;;;2.50;59.40;;;;;;5014631;28;20030;-65
2021/04/27 01:05:22;;;;;;;3.67;1.20;;;2.50;59.70;;;;;;5015500;28;20452;-65
2021/04/27 01:08:10;;;;;;;4.87;1.73;;;2.50;59.80;;;;;;5015522;28;20068;-66
2021/04/27 01:11:11;;;;;;;4.63;1.30;;;2.50;59.90;;;;;;5032582;28;20037;-64
2021/04/27 01:13:44;;;;;;;;;;;2.40;59.90;;;;;;5014907;28;20049;-64
2021/04/27 01:16:11;;;;;;;3.77;1.20;;;2.40;60.00;;;;;;5015386;28;19995;-64
2021/04/27 01:18:41;;;;;;;4.23;1.40;;;2.40;59.90;;;;;;4998497;28;20033;-65
2021/04/27 01:21:08;;;;;;;3.77;1.37;;;2.30;60.00;;;;;;5015274;28;20429;-65
2021/04/27 01:23:37;;;;;;;4.40;1.33;;;2.30;60.10;;;;;;5032604;28;20466;-65
2021/04/27 01:26:12;;;;;;;3.87;1.60;;;2.20;60.10;;;;;;5032395;28;20045;-64
2021/04/27 01:28:46;;;;;;;3.27;1.40;;;2.20;60.30;;;;;;5014748;28;20025;-65
2021/04/27 01:31:13;;;;;;;4.60;1.60;;;2.20;60.60;;;;;;5015001;28;20033;-66
2021/04/27 01:33:40;;;;;;;3.77;1.40;;;2.10;60.60;;;;;;5014726;28;20482;-65
2021/04/27 01:36:07;;;;;;;5.20;1.50;;;2.10;61.10;;;;;;5014673;28;20041;-65
2021/04/27 01:38:43;;;;;;;4.07;1.50;;;2.10;60.60;;;;;;5014884;28;20056;-65
2021/04/27 01:41:09;;;;;;;4.50;1.50;;;2.10;60.80;;;;;;5032140;28;20068;-65
2021/04/27 01:43:36;;;;;;;4.40;1.57;;;2.00;61.10;;;;;;5014375;28;20029;-65
2021/04/27 01:46:06;;;;;;;4.60;1.60;;;2.00;61.30;;;;;;5014753;28;20033;-64
2021/04/27 01:48:34;;;;;;;;;;;2.00;61.50;;;;;;5014984;28;20108;-64
2021/04/27 01:51:02;;;;;;;6.23;1.43;;;1.90;61.70;;;;;;5014799;28;19913;-67
2021/04/27 01:53:33;;;;;;;4.70;1.50;;;1.90;61.70;;;;;;5014753;28;20041;-66
2021/04/27 01:56:00;;;;;;;4.60;1.57;;;1.90;62.00;;;;;;4998032;28;20124;-66
2021/04/27 01:58:26;;;;;;;6.17;1.63;;;1.90;62.10;;;;;;5031801;28;20552;-66
2021/04/27 02:00:52;;;;;;;5.43;1.87;;;1.80;62.10;;;;;;5014589;28;20034;-67
2021/04/27 02:03:17;;;;;;;4.47;1.60;;;1.80;62.20;;;;;;5014076;28;20044;-64
2021/04/27 02:06:18;;;;;;;3.45;1.50;;;1.70;62.20;;;;;;5030712;28;20520;-67
2021/04/27 02:08:48;;;;;;;5.73;1.90;;;1.70;62.40;;;;;;4997954;28;20033;-64
2021/04/27 02:11:14;;;;;;;6.07;1.50;;;1.70;62.50;;;;;;5013828;28;20033;-65
2021/04/27 02:13:40;;;;;;;3.53;1.30;;;1.70;62.80;;;;;;5024826;23;20543;-62
2021/04/27 02:16:08;;;;;;;4.30;1.53;;;1.70;62.90;;;;;;5012298;28;20045;-62
2021/04/27 02:18:41;;;;;;;;;;;1.70;62.90;;;;;;5011111;28;20029;-62
2021/04/27 02:21:12;;;;;;;4.37;1.50;;;1.70;63.00;;;;;;5010898;28;19913;-62
2021/04/27 02:23:41;;;;;;;5.33;1.60;;;1.60;62.90;;;;;;5011334;28;20033;-60
2021/04/27 02:26:13;;;;;;;6.70;1.67;;;1.60;63.20;;;;;;5010848;28;20396;-60
2021/04/27 02:28:45;;;;;;;5.13;1.67;;;1.50;63.50;;;;;;4994835;28;20121;-62
2021/04/27 02:31:12;;;;;;;4.80;1.73;;;1.50;63.90;;;;;;5012015;28;20033;-62
2021/04/27 02:33:39;;;;;;;5.73;1.77;;;1.40;64.00;;;;;;5011061;28;20040;-62
2021/04/27 02:36:07;;;;;;;5.53;2.03;;;1.40;64.20;;;;;;4994563;28;20061;-62
2021/04/27 02:38:49;;;;;;;6.00;1.53;;;1.40;64.40;;;;;;5011532;28;20030;-62
2021/04/27 02:41:15;;;;;;;4.47;1.60;;;1.30;64.40;;;;;;5010522;28;20513;-62
2021/04/27 02:43:42;;;;;;;4.40;1.60;;;1.30;64.40;;;;;;4994001;28;20030;-60
2021/04/27 02:46:07;;;;;;;5.60;1.70;;;1.30;64.50;;;;;;4993550;28;20406;-60
2021/04/27 02:48:45;;;;;;;4.30;1.63;;;1.30;64.60;;;;;;5011657;28;20088;-59
2021/04/27 02:51:17;;;;;;;4.53;1.60;;;1.30;64.90;;;;;;4993860;28;20033;-60
2021/04/27 02:53:56;;;;;;;4.63;2.03;;;1.20;65.20;;;;;;5010107;28;20037;-60
2021/04/27 02:56:22;;;;;;;5.03;1.67;;;1.20;65.30;;;;;;5010539;28;20042;-61
2021/04/27 02:58:50;;;;;;;5.17;1.90;;;1.20;65.40;;;;;;4993980;28;20486;-60
2021/04/27 03:01:16;;;;;;;4.47;1.47;;;1.20;65.60;;;;;;4993837;28;20033;-60
2021/04/27 03:03:43;;;;;;;4.13;1.90;;;1.20;65.60;;;;;;4977442;28;20437;-59
2021/04/27 03:06:09;;;;;;;5.43;1.80;;;1.10;65.60;;;;;;5011447;28;20048;-61
2021/04/27 03:08:48;;;;;;;4.77;1.70;;;1.10;65.70;;;;;;5010175;28;20513;-62
2021/04/27 03:11:14;;;;;;;6.63;1.53;;;1.00;65.80;;;;;;5011405;28;20456;-62
2021/04/27 03:13:41;;;;;;;6.33;2.00;;;1.00;66.00;;;;;;5009321;28;20042;-62
2021/04/27 03:16:07;;;;;;;6.00;1.60;;;1.00;66.20;;;;;;4993928;28;20034;-64
2021/04/27 03:18:33;;;;;;;4.73;1.60;;;1.00;66.30;;;;;;4977297;28;20498;-64
2021/04/27 03:21:00;;;;;;;5.47;1.80;;;1.00;66.40;;;;;;4977675;28;20091;-64
2021/04/27 03:23:28;;;;;;;5.17;1.80;;;1.00;66.50;;;;;;5009653;28;20549;-64
2021/04/27 03:25:54;;;;;;;3.90;1.50;;;0.90;66.70;;;;;;5009341;28;20030;-64
2021/04/27 03:28:34;;;;;;;5.05;1.75;;;0.90;66.90;;;;;;5010032;28;20088;-64
2021/04/27 03:31:03;;;;;;;4.83;1.60;;;0.90;67.10;;;;;;5009615;28;20045;-60
2021/04/27 03:33:29;;;;;;;6.23;1.63;;;0.90;67.10;;;;;;4976882;28;20026;-60
2021/04/27 03:35:56;;;;;;;4.40;1.80;;;0.90;67.20;;;;;;5009976;28;20117;-60
2021/04/27 03:38:22;;;;;;;6.37;1.87;;;0.90;67.30;;;;;;5009532;28;20454;-60
2021/04/27 03:40:49;;;;;;;5.53;1.90;;;0.90;67.40;;;;;;4993916;28;20437;-60
2021/04/27 03:43:19;;;;;;;3.95;1.73;;;0.80;67.70;;;;;;5009163;28;20030;-62
2021/04/27 03:45:45;;;;;;;6.03;1.80;;;0.80;67.90;;;;;;5011241;28;20030;-62
2021/04/27 03:48:14;;;;;;;3.97;1.60;;;0.80;68.00;;;;;;5009992;28;20045;-62
2021/04/27 03:50:47;;;;;;;7.60;2.30;;;0.80;68.20;;;;;;5009670;28;20034;-62
2021/04/27 03:53:26;;;;;;;6.30;1.63;;;0.80;68.60;;;;;;5008558;28;20517;-62
2021/04/27 03:55:53;;;;;;;6.27;1.80;;;0.80;68.80;;;;;;5007786;28;20034;-62
2021/04/27 03:58:19;;;;;;;6.27;1.93;;;0.80;69.00;;;;;;4993562;28;20041;-62
2021/04/27 04:00:45;;;;;;;3.73;1.57;;;0.80;69.10;;;;;;5010107;28;20030;-62
2021/04/27 04:03:18;;;;;;;5.60;2.00;;;0.80;69.10;;;;;;5008832;28;20034;-62
2021/04/27 04:05:44;;;;;;;4.33;1.80;;;0.70;69.10;;;;;;5009151;28;20536;-62
2021/04/27 04:08:21;;;;;;;5.97;2.00;;;0.70;69.20;;;;;;5009722;28;20054;-62
2021/04/27 04:10:47;;;;;;;5.27;2.00;;;0.70;69.50;;;;;;4976944;28;20061;-65
2021/04/27 04:13:13;;;;;;;6.97;2.03;;;0.70;69.70;;;;;;5009946;28;20152;-65
2021/04/27 04:15:39;;;;;;;8.00;1.90;;;0.70;69.90;;;;;;5010712;28;20038;-64
2021/04/27 04:18:04;;;;;;;4.33;2.00;;;0.80;70.00;;;;;;5010423;28;20121;-64
2021/04/27 04:20:30;;;;;;;5.90;2.00;;;0.80;70.10;;;;;;5010864;28;20172;-64
2021/04/27 04:23:26;;;;;;;4.73;1.83;;;0.80;70.20;;;;;;4956113;28;20118;-64
2021/04/27 04:25:52;;;;;;;4.43;1.77;;;0.90;70.40;;;;;;5009391;28;20037;-64
2021/04/27 04:28:18;;;;;;;5.57;2.03;;;0.90;70.60;;;;;;4976476;28;20037;-64
2021/04/27 04:30:44;;;;;;;4.93;2.13;;;1.00;70.70;;;;;;5012284;28;20397;-64
2021/04/27 04:33:36;;;;;;;5.70;2.00;;;1.00;70.60;;;;;;4983887;28;20045;-64
2021/04/27 04:36:35;;;;;;;5.60;2.20;;;1.00;70.70;;;;;;5013401;28;20084;-65
2021/04/27 04:39:19;;;;;;;4.13;2.00;;;1.10;70.90;;;;;;4999513;28;20057;-65
2021/04/27 04:42:03;;;;;;;6.70;2.10;;;1.10;70.90;;;;;;5012923;28;20513;-62
2021/04/27 04:44:49;;;;;;;7.20;2.30;;;1.20;70.90;;;;;;5011971;28;20513;-62
2021/04/27 04:47:38;;;;;;;5.57;2.00;;;1.30;71.10;;;;;;5012891;28;20049;-62
2021/04/27 04:50:22;;;;;;;6.80;2.10;;;1.40;71.20;;;;;;5012894;28;20157;-64
2021/04/27 04:53:00;;;;;;;8.40;2.47;;;1.60;71.70;;;;;;5011872;28;20048;-63
2021/04/27 04:55:40;;;;;;;9.57;2.40;;;1.80;72.10;;;;;;5011933;28;20092;-64
2021/04/27 04:58:22;;;;;;;5.27;1.97;;;2.00;72.70;;;;;;5011534;28;20121;-64
2021/04/27 05:01:01;;;;;;;5.50;2.07;;;2.30;73.30;;;;;;5013197;28;20041;-65
2021/04/27 05:03:42;;;;;;;6.63;1.80;;;2.80;74.80;;;;;;5010015;28;20425;-63
2021/04/27 05:06:27;;;;;;;4.50;1.80;;;3.20;74.80;;;;;;5013011;28;20056;-62
2021/04/27 05:09:13;;;;;;;5.00;1.60;;;3.60;74.30;;;;;;4998787;28;20084;-63
2021/04/27 05:11:57;;;;;;;4.30;1.60;;;3.90;74.00;;;;;;5013264;28;20061;-63
2021/04/27 05:14:34;;;;;;;5.93;2.27;;;4.30;73.70;;;;;;5011206;28;20045;-63
2021/04/27 05:17:02;;;;;;;5.87;1.70;;;4.60;73.70;;;;;;5012803;28;20033;-63
2021/04/27 05:19:29;;;;;;;4.73;1.50;;;5.10;74.70;;;;;;5013413;28;20107;-63
2021/04/27 05:21:55;;;;;;;4.67;1.70;;;5.80;75.10;;;;;;5012623;28;20038;-62
2021/04/27 05:24:21;;;;;;;5.97;2.20;;;6.30;73.60;;;;;;4995089;28;20026;-63
2021/04/27 05:26:48;;;;;;;7.50;2.30;;;6.70;71.70;;;;;;4995415;28;20038;-63
2021/04/27 05:29:15;;;;;;;4.00;1.57;;;7.30;71.40;;;;;;4995161;28;20040;-64
2021/04/27 05:31:41;;;;;;;5.50;1.73;;;7.90;72.00;;;;;;4995504;28;20034;-63
2021/04/27 05:34:06;;;;;;;4.23;1.70;;;8.60;71.50;;;;;;5011087;28;20042;-62
2021/04/27 05:36:32;;;;;;;6.03;1.60;;;9.40;71.40;;;;;;5011760;28;20479;-65
2021/04/27 05:38:59;;;;;;;3.63;1.45;;;10.20;71.20;;;;;;4993894;28;20498;-63
2021/04/27 05:41:25;;;;;;;4.20;1.60;;;11.00;69.00;;;;;;5011249;28;20058;-64
2021/04/27 05:43:50;;;;;;;4.13;1.70;;;11.80;66.70;;;;;;4993805;28;20495;-63
2021/04/27 05:46:16;;;;;;;6.95;1.50;;;12.60;65.40;;;;;;4978199;28;20045;-61
2021/04/27 05:48:42;;;;;;;4.28;1.42;;;13.40;62.50;;;;;;5010418;28;20096;-60
2021/04/27 05:51:07;;;;;;;5.60;1.50;;;14.00;60.30;;;;;;5010656;28;20084;-60
2021/04/27 05:53:33;;;;;;;3.67;1.42;;;14.50;58.40;;;;;;5009353;28;20039;-60
2021/04/27 05:55:59;;;;;;;4.75;1.42;;;14.90;56.40;;;;;;5012074;28;20450;-60
2021/04/27 05:58:25;;;;;;;5.82;1.70;;;15.40;53.50;;;;;;4994401;28;20489;-60
2021/04/27 06:00:50;;;;;;;5.55;1.75;;;15.90;52.90;;;;;;4994213;28;20108;-60
2021/04/27 06:03:16;;;;;;;4.80;1.70;;;16.50;51.60;;;;;;4994245;28;20540;-60
2021/04/27 06:05:42;;;;;;;4.30;1.60;;;17.20;49.90;;;;;;5011515;28;20073;-60
2021/04/27 06:08:07;;;;;;;4.35;1.50;;;17.60;47.10;;;;;;4994382;28;20133;-61
2021/04/27 06:10:33;;;;;;;5.60;1.50;;;18.10;46.10;;;;;;4994397;28;20056;-61
2021/04/27 06:12:59;;;;;;;4.55;1.50;;;18.60;44.50;;;;;;5010974;28;20125;-61
2021/04/27 06:15:25;;;;;;;4.13;1.48;;;18.90;42.50;;;;;;4994325;28;20041;-61
2021/04/27 06:17:50;;;;;;;7.70;2.95;;;19.40;42.00;;;;;;5011480;28;20048;-62
2021/04/27 06:20:17;;;;;;;3.45;1.30;;;19.70;39.80;;;;;;5011759;28;20148;-62
2021/04/27 06:22:43;;;;;;;3.75;1.35;;;19.80;37.60;;;;;;5011407;28;20045;-61
2021/04/27 06:25:12;;;;;;;5.15;1.40;;;19.70;36.60;;;;;;5010204;28;20042;-61
2021/04/27 06:27:38;;;;;;;4.13;1.27;;;19.80;37.40;;;;;;5011011;28;20034;-61
2021/04/27 06:30:06;;;;;;;4.18;1.30;;;20.30;36.10;;;;;;5011379;28;20056;-62
2021/04/27 06:32:31;;;;;;;3.63;1.20;;;20.80;34.70;;;;;;4993167;28;20088;-62
2021/04/27 06:34:57;;;;;;;3.28;1.17;;;21.40;34.00;;;;;;5010911;28;20566;-62
2021/04/27 06:37:23;;;;;;;4.75;1.30;;;22.00;33.70;;;;;;5010667;28;20045;-62
2021/04/27 06:39:49;;;;;;;2.85;1.20;;;22.40;31.90;;;;;;5011161;28;20034;-62
2021/04/27 06:42:15;;;;;;;3.97;1.30;;;22.80;31.10;;;;;;5010903;28;20041;-62
2021/04/27 06:44:41;;;;;;;3.75;1.23;;;23.20;30.40;;;;;;5010127;28;20036;-62
2021/04/27 06:47:08;;;;;;;2.92;1.23;;;23.60;29.80;;;;;;5010985;28;20041;-62
2021/04/27 06:49:35;;;;;;;4.78;1.35;;;24.00;29.50;;;;;;5010942;28;20065;-62
2021/04/27 06:52:01;;;;;;;3.90;1.20;;;24.20;29.50;;;;;;4993019;28;20038;-62
2021/04/27 06:54:27;;;;;;;6.40;1.40;;;24.40;27.90;;;;;;5010067;28;20121;-62
2021/04/27 06:56:53;;;;;;;5.72;1.40;;;24.40;27.50;;;;;;5010401;28;20045;-62
2021/04/27 06:59:21;;;;;;;4.05;1.40;;;24.60;27.30;;;;;;5010828;28;20026;-62
2021/04/27 07:01:48;;;;;;;4.72;1.33;;;25.00;27.10;;;;;;5010545;28;20030;-62
2021/04/27 07:04:14;;;;;;;5.68;1.42;;;25.40;26.90;;;;;;5010155;28;20034;-63
2021/04/27 07:06:41;;;;;;;3.95;1.33;;;25.80;26.90;;;;;;4992886;28;20109;-62
2021/04/27 07:09:07;;;;;;;3.20;1.38;;;26.00;25.50;;;;;;5010100;28;20470;-62
2021/04/27 07:11:33;;;;;;;3.67;1.17;;;25.70;24.70;;;;;;5010601;28;20402;-62
2021/04/27 07:13:59;;;;;;;6.75;1.30;;;25.70;24.80;;;;;;5010267;28;20046;-62
2021/04/27 07:16:26;;;;;;;3.92;1.20;;;25.90;24.90;;;;;;4993069;28;20034;-62
2021/04/27 07:18:52;;;;;;;5.28;1.20;;;26.00;23.90;;;;;;5010878;28;20490;-64
2021/04/27 07:21:20;;;;;;;2.83;1.35;;;26.00;23.40;;;;;;4992678;28;20038;-62
2021/04/27 07:23:46;;;;;;;5.05;1.33;;;25.90;23.50;;;;;;4992907;28;20061;-62
2021/04/27 07:26:12;;;;;;;4.35;1.38;;;26.40;23.60;;;;;;5010948;28;20418;-62
2021/04/27 07:28:38;;;;;;;4.00;1.40;;;26.50;23.00;;;;;;5010256;28;20054;-63
2021/04/27 07:31:04;;;;;;;3.40;1.20;;;26.30;23.00;;;;;;4993226;28;20052;-63
2021/04/27 07:33:30;;;;;;;4.30;1.20;;;26.50;23.30;;;;;;4992044;28;20030;-62
2021/04/27 07:35:56;;;;;;;4.38;1.73;;;26.60;22.90;;;;;;4976943;28;20100;-62
2021/04/27 07:38:23;;;;;;;3.53;1.17;;;26.30;21.90;;;;;;5010624;28;20030;-62
2021/04/27 07:40:49;;;;;;;5.55;1.38;;;25.90;22.10;;;;;;5010242;28;20042;-62
2021/04/27 07:43:15;;;;;;;3.92;1.05;;;26.40;22.70;;;;;;5010269;28;20509;-63
2021/04/27 07:45:42;;;;;;;5.32;1.20;;;27.10;21.90;;;;;;4992804;28;20076;-63
2021/04/27 07:48:09;;;;;;;3.75;1.30;;;27.20;22.30;;;;;;5010559;28;20121;-63
2021/04/27 07:50:36;;;;;;;4.00;1.30;;;27.60;22.10;;;;;;5010327;28;20030;-63
2021/04/27 07:53:04;;;;;;;4.13;1.20;;;28.10;22.20;;;;;;5009747;28;20062;-63
2021/04/27 07:55:31;;;;;;;4.60;1.40;;;28.30;21.70;;;;;;4992887;28;20038;-63
2021/04/27 07:57:57;;;;;;;3.90;1.10;;;28.50;21.20;;;;;;5010296;28;20041;-63
2021/04/27 08:00:24;;;;;;;3.85;1.20;;;28.70;20.90;;;;;;5010774;28;20459;-63
2021/04/27 08:02:51;;;;;;;3.70;1.00;;;28.70;20.70;;;;;;4992156;28;20137;-63
2021/04/27 08:05:22;;;;;;;3.22;0.90;;;29.00;21.10;;;;;;4993505;28;20034;-63
2021/04/27 08:07:49;;;;;;;2.38;1.00;;;29.50;20.90;;;;;;5014129;28;20042;-63
2021/04/27 08:10:16;;;;;;;2.85;1.10;;;30.20;20.40;;;;;;5013844;28;20065;-63
2021/04/27 08:12:45;;;;;;;2.92;1.10;;;30.70;20.20;;;;;;4996734;28;20069;-63
2021/04/27 08:15:13;;;;;;;3.03;1.10;;;31.40;20.10;;;;;;4996450;28;20042;-64
2021/04/27 08:17:40;;;;;;;2.72;1.00;;;31.90;19.80;;;;;;4979715;28;20121;-61
2021/04/27 08:20:09;;;;;;;4.22;1.30;;;32.30;19.50;;;;;;5013913;28;20042;-61
2021/04/27 08:22:36;;;;;;;2.15;0.95;;;32.00;19.00;;;;;;4996014;28;20042;-61
2021/04/27 08:25:03;;;;;;;3.70;1.10;;;31.90;19.10;;;;;;5013694;28;20571;-61
2021/04/27 08:27:30;;;;;;;3.00;0.90;;;32.10;19.00;;;;;;4996337;28;20041;-62
2021/04/27 08:29:56;;;;;;;4.70;1.08;;;32.40;18.90;;;;;;5013396;28;20498;-61
2021/04/27 08:32:24;;;;;;;4.50;1.13;;;32.40;18.70;;;;;;5013448;28;20034;-61
2021/04/27 08:34:50;;;;;;;3.42;1.00;;;32.70;19.00;;;;;;5012756;28;20037;-63
2021/04/27 08:37:17;;;;;;;2.17;0.90;;;32.50;18.20;;;;;;5013381;28;20205;-61
2021/04/27 08:39:43;;;;;;;2.75;0.98;;;32.00;18.40;;;;;;4995307;28;20486;-62
2021/04/27 08:42:11;;;;;;;2.78;1.08;;;32.30;18.70;;;;;;5013700;28;20046;-62
2021/04/27 08:44:39;;;;;;;4.85;1.10;;;32.20;18.10;;;;;;5013211;28;20056;-61
2021/04/27 08:47:07;;;;;;;3.83;1.10;;;31.80;18.00;;;;;;4995387;28;20038;-61
2021/04/27 08:49:33;;;;;;;3.30;0.98;;;31.30;17.50;;;;;;5013616;28;20034;-62
2021/04/27 08:51:59;;;;;;;2.53;0.90;;;31.10;18.20;;;;;;4996148;28;20095;-68
2021/04/27 08:54:25;;;;;;;3.40;1.00;;;31.30;18.30;;;;;;4995203;28;20542;-65
2021/04/27 08:56:52;;;;;;;2.72;1.10;;;31.40;18.20;;;;;;5013446;28;20038;-62
2021/04/27 08:59:19;;;;;;;2.20;0.98;;;31.80;18.00;;;;;;4995397;28;20524;-62
2021/04/27 09:01:46;;;;;;;2.58;1.00;;;30.90;17.70;;;;;;5013382;28;20099;-63
2021/04/27 09:04:14;;;;;;;3.22;1.10;;;31.00;18.30;;;;;;5012924;28;20046;-61
2021/04/27 09:06:41;;;;;;;2.70;1.00;;;31.10;17.90;;;;;;4994915;28;20445;-61
2021/04/27 09:09:07;;;;;;;2.70;1.00;;;31.30;18.20;;;;;;5013043;28;20045;-60
2021/04/27 09:11:34;;;;;;;2.63;0.90;;;31.70;18.10;;;;;;5012349;28;20038;-60
2021/04/27 09:14:20;;;;;;;1.80;0.90;;;31.10;17.60;;;;;;4987382;28;20042;-61
2021/04/27 09:16:52;;;;;;;4.13;1.10;;;28.90;17.10;;;;;;5017758;28;20032;-61
2021/04/27 09:19:48;;;;;;;2.92;1.15;;;27.80;18.10;;;;;;5025254;28;20038;-61
2021/04/27 09:22:14;;;;;;;2.72;1.10;;;28.60;19.10;;;;;;5008388;28;20059;-61
2021/04/27 09:24:44;;;;;;;3.13;0.98;;;30.10;19.10;;;;;;5009342;28;20033;-61
2021/04/27 09:27:11;;;;;;;3.13;1.08;;;31.20;18.40;;;;;;5016876;28;20053;-62
2021/04/27 09:29:41;;;;;;;3.28;1.05;;;31.40;17.70;;;;;;5022646;28;20080;-61
2021/04/27 09:32:09;;;;;;;3.17;1.00;;;31.70;17.60;;;;;;5017858;28;20164;-61
2021/04/27 09:34:37;;;;;;;2.75;1.00;;;32.00;17.30;;;;;;5028406;28;20524;-61
2021/04/27 09:37:05;;;;;;;2.72;1.10;;;32.40;18.00;;;;;;5018053;28;20034;-61
2021/04/27 09:39:43;;;;;;;2.08;0.90;;;33.00;17.60;;;;;;5004815;28;20383;-62
2021/04/27 09:42:16;;;;;;;2.58;1.00;;;32.60;17.00;;;;;;5026938;28;20034;-61
2021/04/27 09:44:43;;;;;;;2.67;1.05;;;32.10;17.00;;;;;;5014903;28;20037;-61
2021/04/27 09:47:21;;;;;;;3.42;0.93;;;31.50;16.70;;;;;;5025851;28;20057;-61
2021/04/27 09:49:52;;;;;;;3.08;0.90;;;31.60;17.20;;;;;;5005418;28;20492;-61
2021/04/27 09:52:18;;;;;;;1.85;1.00;;;32.80;17.40;;;;;;5029690;28;20037;-61
2021/04/27 09:54:57;;;;;;;3.47;0.93;;;33.60;16.70;;;;;;5015831;28;20045;-60
2021/04/27 09:57:27;;;;;;;3.53;0.90;;;33.50;16.80;;;;;;5015405;28;20076;-60
2021/04/27 09:59:54;;;;;;;2.50;0.98;;;33.90;16.90;;;;;;5028785;28;20799;-60
2021/04/27 10:02:22;;;;;;;2.90;0.90;;;34.20;16.70;;;;;;5012068;28;20088;-61
2021/04/27 10:04:51;;;;;;;5.15;0.90;;;34.20;16.70;;;;;;5013154;28;20113;-61
2021/04/27 10:07:18;;;;;;;2.22;0.90;;;34.30;16.60;;;;;;5026726;28;20044;-61
2021/04/27 10:09:46;;;;;;;2.60;0.90;;;34.30;16.30;;;;;;5015213;28;20077;-61
2021/04/27 10:12:13;;;;;;;2.53;1.00;;;34.20;16.30;;;;;;5025039;28;20045;-61
2021/04/27 10:14:40;;;;;;;3.53;1.10;;;34.70;16.40;;;;;;5009955;28;20053;-61
2021/04/27 10:17:07;;;;;;;5.28;1.08;;;35.30;16.50;;;;;;4991643;28;20688;-61
2021/04/27 10:19:34;;;;;;;2.53;0.82;;;36.20;16.60;;;;;;5014462;28;20030;-61
2021/04/27 10:22:00;;;;;;;2.42;1.00;;;36.80;16.30;;;;;;5023874;28;20095;-61
2021/04/27 10:24:26;;;;;;;2.63;0.90;;;36.20;15.60;;;;;;5022105;28;20041;-61
2021/04/27 10:26:53;;;;;;;2.45;0.90;;;34.30;15.50;;;;;;5022879;28;20135;-61
2021/04/27 10:29:26;;;;;;;3.40;0.90;;;34.00;16.20;;;;;;5014897;28;20038;-61
2021/04/27 10:32:17;;;;;;;2.63;1.02;;;34.60;16.50;;;;;;4994925;28;20029;-61
2021/04/27 10:34:58;;;;;;;2.60;0.90;;;35.40;16.20;;;;;;4999789;28;20459;-61
2021/04/27 10:37:29;;;;;;;3.03;1.10;;;35.70;16.20;;;;;;5016207;28;20496;-61
2021/04/27 10:39:55;;;;;;;2.13;0.90;;;35.90;15.90;;;;;;5009627;28;20037;-62
2021/04/27 10:42:29;;;;;;;2.22;0.80;;;35.90;15.40;;;;;;5013444;28;20038;-61
2021/04/27 10:44:56;;;;;;;4.32;0.90;;;35.60;15.80;;;;;;5019410;28;20529;-62
2021/04/27 10:47:23;;;;;;;3.75;0.95;;;36.60;16.20;;;;;;5025065;28;20049;-62
2021/04/27 10:49:55;;;;;;;3.83;0.90;;;37.10;15.70;;;;;;5019844;28;20493;-62
2021/04/27 10:52:35;;;;;;;1.85;0.80;;;36.60;15.30;;;;;;5000081;28;20044;-62
2021/04/27 10:55:28;;;;;;;2.08;0.93;;;35.80;15.30;;;;;;5008324;28;20122;-62
2021/04/27 10:57:56;;;;;;;1.90;0.70;;;35.30;14.90;;;;;;5020456;28;20037;-61
2021/04/27 11:00:41;;;;;;;3.72;0.90;;;34.40;15.10;;;;;;5017285;28;20512;-61
2021/04/27 11:03:23;;;;;;;1.77;0.70;;;34.40;15.40;;;;;;4997497;28;20033;-64
2021/04/27 11:06:00;;;;;;;2.05;0.85;;;34.50;15.70;;;;;;5014680;28;20049;-64
2021/04/27 11:08:47;;;;;;;2.65;0.90;;;35.00;15.70;;;;;;5024007;28;20041;-64
2021/04/27 11:11:22;;;;;;;1.38;0.68;;;36.00;15.60;;;;;;4989748;28;20052;-64
2021/04/27 11:13:50;;;;;;;2.13;0.68;;;36.30;15.30;;;;;;5019187;28;20387;-64
2021/04/27 11:16:27;;;;;;;3.20;1.10;;;36.00;15.30;;;;;;4976473;28;20065;-64
2021/04/27 11:19:18;;;;;;;3.25;0.80;;;35.90;15.10;;;;;;5024900;28;20037;-65
2021/04/27 11:21:45;;;;;;;1.17;0.70;;;36.10;15.70;;;;;;5018525;28;20175;-65
2021/04/27 11:24:29;;;;;;;1.85;0.70;;;37.20;15.60;;;;;;5017937;28;20056;-65
2021/04/27 11:26:57;;;;;;;1.50;0.70;;;37.00;14.80;;;;;;5026608;28;20402;-64
2021/04/27 11:29:31;;;;;;;2.33;0.70;;;35.80;14.80;;;;;;4998850;28;20022;-64
2021/04/27 11:32:03;;;;;;;1.58;0.80;;;35.40;15.00;;;;;;5013460;28;20572;-64
2021/04/27 11:34:30;;;;;;;2.53;0.82;;;35.30;15.20;;;;;;5024870;28;20044;-64
2021/04/27 11:36:58;;;;;;;2.13;0.77;;;36.10;15.40;;;;;;4996226;28;20044;-65
2021/04/27 11:39:27;;;;;;;1.70;0.60;;;36.60;15.40;;;;;;5008255;28;20065;-65
2021/04/27 11:42:06;;;;;;;3.30;0.80;;;37.40;15.60;;;;;;5005489;28;20033;-64
2021/04/27 11:44:41;;;;;;;1.60;0.77;;;38.00;15.30;;;;;;5004857;28;20825;-65
2021/04/27 11:47:17;;;;;;;1.85;0.95;;;37.80;14.90;;;;;;5008200;28;20280;-65
2021/04/27 11:49:48;;;;;;;1.83;0.80;;;37.50;14.90;;;;;;5025600;28;20025;-65
2021/04/27 11:52:16;;;;;;;3.03;0.93;;;37.40;15.10;;;;;;4989567;28;20045;-65
2021/04/27 11:54:42;;;;;;;2.00;0.70;;;37.40;14.70;;;;;;5013177;28;20046;-64
2021/04/27 11:57:17;;;;;;;1.08;0.70;;;37.00;14.80;;;;;;5014587;28;20026;-64
2021/04/27 11:59:43;;;;;;;2.55;0.75;;;36.80;15.10;;;;;;5013926;28;20045;-65
2021/04/27 12:02:14;;;;;;;1.08;0.70;;;37.20;15.40;;;;;;5014475;28;20104;-65
2021/04/27 12:04:42;;;;;;;3.63;0.75;;;37.70;15.10;;;;;;5013543;28;20686;-65
2021/04/27 12:07:08;;;;;;;3.00;0.90;;;37.70;14.90;;;;;;4996935;28;20053;-64
2021/04/27 12:09:41;;;;;;;4.35;0.80;;;37.20;14.50;;;;;;5014283;28;20034;-64
2021/04/27 12:12:09;;;;;;;4.35;0.80;;;35.80;14.40;;;;;;5013874;28;20038;-64
2021/04/27 12:14:35;;;;;;;2.17;0.75;;;34.30;14.50;;;;;;5000922;28;20178;-63
2021/04/27 12:17:01;;;;;;;2.78;0.73;;;33.00;14.40;;;;;;5026162;28;20038;-63
2021/04/27 12:19:27;;;;;;;2.80;0.80;;;31.80;14.50;;;;;;5024650;28;20124;-63
2021/04/27 12:22:07;;;;;;;1.25;0.80;;;30.90;14.80;;;;;;4985831;28;20113;-63
2021/04/27 12:24:39;;;;;;;4.10;0.90;;;30.10;14.70;;;;;;5006170;28;20474;-63
2021/04/27 12:27:31;;;;;;;2.90;0.90;;;28.90;14.90;;;;;;5015305;28;20057;-63
2021/04/27 12:30:03;;;;;;;2.60;0.70;;;27.80;14.80;;;;;;5010194;28;20029;-63
2021/04/27 12:32:32;;;;;;;1.73;0.70;;;27.10;15.00;;;;;;5008831;28;20049;-63
2021/04/27 12:35:02;;;;;;;2.42;0.70;;;26.20;15.10;;;;;;5002207;28;20050;-63
2021/04/27 12:37:40;;;;;;;4.90;1.10;;;25.80;16.10;;;;;;5001625;28;20113;-63
2021/04/27 12:40:15;;;;;;;4.78;0.90;;;26.00;15.70;;;;;;5007305;28;20037;-63
2021/04/27 12:42:48;;;;;;;2.15;0.85;;;25.90;15.70;;;;;;5006243;28;20038;-63
2021/04/27 12:45:16;;;;;;;1.20;0.70;;;25.70;15.60;;;;;;5005175;28;20036;-62
2021/04/27 12:47:44;;;;;;;2.25;0.85;;;25.30;15.40;;;;;;4991939;28;20061;-63
2021/04/27 12:50:19;;;;;;;3.60;0.82;;;24.60;15.60;;;;;;5010081;28;20099;-64
2021/04/27 12:53:04;;;;;;;2.10;0.70;;;24.30;16.00;;;;;;5009210;28;20041;-63
2021/04/27 12:55:34;;;;;;;2.92;0.82;;;24.60;16.40;;;;;;5010319;28;20037;-63
2021/04/27 12:58:10;;;;;;;2.75;0.80;;;25.10;16.50;;;;;;5011075;28;20059;-64
2021/04/27 13:00:53;;;;;;;2.13;0.73;;;25.20;16.10;;;;;;4994355;28;20440;-63
2021/04/27 13:03:25;;;;;;;4.10;0.90;;;25.00;15.70;;;;;;5011453;28;20040;-63
2021/04/27 13:05:52;;;;;;;2.55;0.80;;;24.20;15.90;;;;;;4977599;28;20041;-63
2021/04/27 13:08:23;;;;;;;3.78;0.82;;;23.60;15.90;;;;;;4994526;28;20038;-65